sensor_id;sensor_type;location;lat;lon;timestamp;pressure;altitude;pressure_sealevel;temperature;humidity
27984;BME280;15317;50.360;8.726;2022-09-13T00:00:24;99086.53;;;14.08;100.00
27984;BME280;15317;50.360;8.726;2022-09-13T00:04:27;99088.44;;;14.08;100.00
27984;BME280;15317;50.360;8.726;2022-09-13T00:08:29;99083.38;;;14.05;100.00
27984;BME280;15317;50.360;8.726;2022-09-13T00:12:31;99073.47;;;14.04;100.00
27984;BME280;15317;50.360;8.726;2022-09-13T00:16:34;99079.31;;;14.01;100.00
27984;BME280;15317;50.360;8.726;2022-09-13T00:20:38;99066.25;;;13.96;100.00
27984;BME280;15317;50.360;8.726;2022-09-13T00:24:40;99042.25;;;13.92;100.00
27984;BME280;15317;50.360;8.726;2022-09-13T00:28:42;99038.59;;;13.84;100.00
27984;BME280;15317;50.360;8.726;2022-09-13T00:32:45;99057.63;;;13.78;100.00
27984;BME280;15317;50.360;8.726;2022-09-13T00:36:48;99044.53;;;13.73;100.00
27984;BME280;15317;50.360;8.726;2022-09-13T00:40:50;99032.50;;;13.68;100.00
27984;BME280;15317;50.360;8.726;2022-09-13T00:44:55;99031.38;;;13.62;100.00
27984;BME280;15317;50.360;8.726;2022-09-13T00:49:02;99015.78;;;13.56;100.00
27984;BME280;15317;50.360;8.726;2022-09-13T00:53:09;99001.38;;;13.48;100.00
27984;BME280;15317;50.360;8.726;2022-09-13T00:57:13;98996.88;;;13.40;100.00
27984;BME280;15317;50.360;8.726;2022-09-13T01:01:18;98987.75;;;13.33;100.00
27984;BME280;15317;50.360;8.726;2022-09-13T01:05:25;98987.50;;;13.28;100.00
27984;BME280;15317;50.360;8.726;2022-09-13T01:09:31;98992.69;;;13.23;100.00
27984;BME280;15317;50.360;8.726;2022-09-13T01:13:38;99024.47;;;13.16;100.00
27984;BME280;15317;50.360;8.726;2022-09-13T01:17:40;99037.41;;;13.14;100.00
27984;BME280;15317;50.360;8.726;2022-09-13T01:26:41;99025.19;;;13.10;100.00
27984;BME280;15317;50.360;8.726;2022-09-13T01:30:54;99020.09;;;13.06;100.00
27984;BME280;15317;50.360;8.726;2022-09-13T01:35:06;99001.09;;;12.98;100.00
27984;BME280;15317;50.360;8.726;2022-09-13T01:39:15;98998.09;;;12.93;100.00
27984;BME280;15317;50.360;8.726;2022-09-13T01:43:30;98995.94;;;12.89;100.00
27984;BME280;15317;50.360;8.726;2022-09-13T01:47:42;98986.91;;;12.88;100.00
27984;BME280;15317;50.360;8.726;2022-09-13T01:51:49;98972.78;;;12.85;100.00
27984;BME280;15317;50.360;8.726;2022-09-13T01:56:02;98974.38;;;12.79;100.00
27984;BME280;15317;50.360;8.726;2022-09-13T02:00:10;98975.59;;;12.77;100.00
27984;BME280;15317;50.360;8.726;2022-09-13T02:04:18;99000.69;;;12.72;100.00
27984;BME280;15317;50.360;8.726;2022-09-13T02:08:23;99004.44;;;12.71;100.00
27984;BME280;15317;50.360;8.726;2022-09-13T02:12:29;99003.13;;;12.67;100.00
27984;BME280;15317;50.360;8.726;2022-09-13T02:16:35;99013.00;;;12.68;100.00
27984;BME280;15317;50.360;8.726;2022-09-13T02:20:43;99006.53;;;12.69;100.00
27984;BME280;15317;50.360;8.726;2022-09-13T02:24:50;98999.00;;;12.71;100.00
27984;BME280;15317;50.360;8.726;2022-09-13T02:28:57;99001.53;;;12.73;100.00
27984;BME280;15317;50.360;8.726;2022-09-13T02:33:03;99000.69;;;12.72;100.00
27984;BME280;15317;50.360;8.726;2022-09-13T02:37:10;99007.34;;;12.70;100.00
27984;BME280;15317;50.360;8.726;2022-09-13T02:41:16;98994.56;;;12.70;100.00
27984;BME280;15317;50.360;8.726;2022-09-13T02:45:28;99001.34;;;12.74;100.00
27984;BME280;15317;50.360;8.726;2022-09-13T02:49:41;99000.59;;;12.80;100.00
27984;BME280;15317;50.360;8.726;2022-09-13T02:53:50;98995.94;;;12.89;100.00
27984;BME280;15317;50.360;8.726;2022-09-13T02:58:00;98999.38;;;12.97;100.00
27984;BME280;15317;50.360;8.726;2022-09-13T03:02:06;98998.47;;;13.05;100.00
27984;BME280;15317;50.360;8.726;2022-09-13T03:06:10;99009.63;;;13.10;100.00
27984;BME280;15317;50.360;8.726;2022-09-13T03:10:14;99008.09;;;13.16;100.00
27984;BME280;15317;50.360;8.726;2022-09-13T03:14:20;99004.44;;;13.23;100.00
27984;BME280;15317;50.360;8.726;2022-09-13T03:18:36;98995.28;;;13.31;100.00
27984;BME280;15317;50.360;8.726;2022-09-13T03:23:11;98984.38;;;13.31;100.00
27984;BME280;15317;50.360;8.726;2022-09-13T03:27:27;98982.78;;;13.36;100.00
27984;BME280;15317;50.360;8.726;2022-09-13T03:31:32;98989.38;;;13.42;100.00
27984;BME280;15317;50.360;8.726;2022-09-13T03:35:39;98982.22;;;13.41;100.00
27984;BME280;15317;50.360;8.726;2022-09-13T03:39:47;98982.03;;;13.42;100.00
27984;BME280;15317;50.360;8.726;2022-09-13T03:43:54;98982.03;;;13.42;100.00
27984;BME280;15317;50.360;8.726;2022-09-13T03:47:58;98975.31;;;13.45;100.00
27984;BME280;15317;50.360;8.726;2022-09-13T03:52:01;98986.22;;;13.45;100.00
27984;BME280;15317;50.360;8.726;2022-09-13T03:56:11;98986.22;;;13.45;100.00
27984;BME280;15317;50.360;8.726;2022-09-13T04:00:16;98983.31;;;13.47;100.00
27984;BME280;15317;50.360;8.726;2022-09-13T04:04:18;98966.09;;;13.46;100.00
27984;BME280;15317;50.360;8.726;2022-09-13T04:08:20;98954.75;;;13.42;100.00
27984;BME280;15317;50.360;8.726;2022-09-13T04:12:22;98965.84;;;13.41;100.00
27984;BME280;15317;50.360;8.726;2022-09-13T04:16:26;98968.94;;;13.38;100.00
27984;BME280;15317;50.360;8.726;2022-09-13T04:20:28;98974.78;;;13.35;100.00
27984;BME280;15317;50.360;8.726;2022-09-13T04:24:30;98965.28;;;13.31;100.00
27984;BME280;15317;50.360;8.726;2022-09-13T04:28:32;98970.09;;;13.29;100.00
27984;BME280;15317;50.360;8.726;2022-09-13T04:32:35;98976.41;;;13.29;100.00
27984;BME280;15317;50.360;8.726;2022-09-13T04:36:38;98967.06;;;13.24;100.00
27984;BME280;15317;50.360;8.726;2022-09-13T04:40:40;98970.47;;;13.26;100.00
27984;BME280;15317;50.360;8.726;2022-09-13T04:44:43;98971.50;;;13.25;100.00
27984;BME280;15317;50.360;8.726;2022-09-13T04:48:48;98974.22;;;13.25;100.00
27984;BME280;15317;50.360;8.726;2022-09-13T04:52:53;98983.06;;;13.27;100.00
27984;BME280;15317;50.360;8.726;2022-09-13T04:56:55;98985.44;;;13.30;100.00
27984;BME280;15317;50.360;8.726;2022-09-13T05:01:01;98982.31;;;13.33;100.00
27984;BME280;15317;50.360;8.726;2022-09-13T05:05:05;98988.44;;;13.35;100.00
27984;BME280;15317;50.360;8.726;2022-09-13T05:09:11;98985.31;;;13.38;100.00
27984;BME280;15317;50.360;8.726;2022-09-13T05:13:13;98985.69;;;13.35;100.00
27984;BME280;15317;50.360;8.726;2022-09-13T05:17:15;98984.00;;;13.34;100.00
27984;BME280;15317;50.360;8.726;2022-09-13T05:21:19;98986.16;;;13.38;100.00
27984;BME280;15317;50.360;8.726;2022-09-13T05:25:21;98987.66;;;13.41;100.00
27984;BME280;15317;50.360;8.726;2022-09-13T05:29:23;98993.56;;;13.44;100.00
27984;BME280;15317;50.360;8.726;2022-09-13T05:33:26;99000.19;;;13.50;100.00
27984;BME280;15317;50.360;8.726;2022-09-13T05:37:30;98987.47;;;13.57;100.00
27984;BME280;15317;50.360;8.726;2022-09-13T05:41:32;98998.66;;;13.62;100.00
27984;BME280;15317;50.360;8.726;2022-09-13T05:45:34;98991.56;;;13.68;100.00
27984;BME280;15317;50.360;8.726;2022-09-13T05:49:37;98979.03;;;13.73;100.00
27984;BME280;15317;50.360;8.726;2022-09-13T05:53:41;98992.56;;;13.81;100.00
27984;BME280;15317;50.360;8.726;2022-09-13T05:57:44;98996.22;;;13.89;100.00
27984;BME280;15317;50.360;8.726;2022-09-13T06:01:46;98991.50;;;13.97;100.00
27984;BME280;15317;50.360;8.726;2022-09-13T06:05:48;99006.31;;;14.09;100.00
27984;BME280;15317;50.360;8.726;2022-09-13T06:09:53;99009.38;;;14.21;100.00
27984;BME280;15317;50.360;8.726;2022-09-13T06:13:55;99014.72;;;14.29;100.00
27984;BME280;15317;50.360;8.726;2022-09-13T06:17:57;99014.59;;;14.37;100.00
27984;BME280;15317;50.360;8.726;2022-09-13T06:21:59;99008.00;;;14.46;100.00
27984;BME280;15317;50.360;8.726;2022-09-13T06:26:03;98998.59;;;14.55;100.00
27984;BME280;15317;50.360;8.726;2022-09-13T06:30:07;99003.41;;;14.53;100.00
27984;BME280;15317;50.360;8.726;2022-09-13T06:34:12;99000.94;;;14.58;100.00
27984;BME280;15317;50.360;8.726;2022-09-13T06:38:15;99008.53;;;14.63;100.00
27984;BME280;15317;50.360;8.726;2022-09-13T06:42:19;99005.19;;;14.68;100.00
27984;BME280;15317;50.360;8.726;2022-09-13T06:46:21;99006.50;;;14.72;100.00
27984;BME280;15317;50.360;8.726;2022-09-13T06:50:23;99021.72;;;14.81;100.00
27984;BME280;15317;50.360;8.726;2022-09-13T06:54:25;99023.06;;;14.91;100.00
27984;BME280;15317;50.360;8.726;2022-09-13T06:58:29;99027.03;;;14.89;100.00
27984;BME280;15317;50.360;8.726;2022-09-13T07:02:32;99020.53;;;14.90;100.00
27984;BME280;15317;50.360;8.726;2022-09-13T07:06:36;99013.38;;;14.89;100.00
27984;BME280;15317;50.360;8.726;2022-09-13T07:10:38;99024.31;;;14.89;100.00
27984;BME280;15317;50.360;8.726;2022-09-13T07:14:42;99032.78;;;14.94;100.00
27984;BME280;15317;50.360;8.726;2022-09-13T07:18:44;99029.88;;;15.02;100.00
27984;BME280;15317;50.360;8.726;2022-09-13T07:22:47;99022.78;;;15.08;100.00
27984;BME280;15317;50.360;8.726;2022-09-13T07:26:49;99013.97;;;15.12;100.00
27984;BME280;15317;50.360;8.726;2022-09-13T07:30:52;99011.06;;;15.20;100.00
27984;BME280;15317;50.360;8.726;2022-09-13T07:34:54;99015.78;;;15.33;100.00
27984;BME280;15317;50.360;8.726;2022-09-13T07:38:58;99016.22;;;15.43;100.00
27984;BME280;15317;50.360;8.726;2022-09-13T07:43:00;99007.69;;;15.53;100.00
27984;BME280;15317;50.360;8.726;2022-09-13T07:47:03;99010.06;;;15.62;100.00
27984;BME280;15317;50.360;8.726;2022-09-13T07:51:07;98998.91;;;15.64;100.00
27984;BME280;15317;50.360;8.726;2022-09-13T07:55:09;99005.03;;;15.72;100.00
27984;BME280;15317;50.360;8.726;2022-09-13T07:59:12;99003.13;;;15.66;100.00
27984;BME280;15317;50.360;8.726;2022-09-13T08:03:16;98997.66;;;15.66;100.00
27984;BME280;15317;50.360;8.726;2022-09-13T08:07:18;98999.09;;;15.56;100.00
27984;BME280;15317;50.360;8.726;2022-09-13T08:11:22;98991.63;;;15.50;100.00
27984;BME280;15317;50.360;8.726;2022-09-13T08:15:25;98999.28;;;15.54;100.00
27984;BME280;15317;50.360;8.726;2022-09-13T08:19:29;98997.84;;;15.65;100.00
27984;BME280;15317;50.360;8.726;2022-09-13T08:23:31;99000.84;;;15.83;100.00
27984;BME280;15317;50.360;8.726;2022-09-13T08:27:33;99010.22;;;16.08;100.00
27984;BME280;15317;50.360;8.726;2022-09-13T08:31:36;99011.50;;;16.26;100.00
27984;BME280;15317;50.360;8.726;2022-09-13T08:35:39;99011.53;;;16.39;100.00
27984;BME280;15317;50.360;8.726;2022-09-13T08:39:41;99002.28;;;16.40;100.00
27984;BME280;15317;50.360;8.726;2022-09-13T08:43:48;99005.06;;;16.66;100.00
27984;BME280;15317;50.360;8.726;2022-09-13T08:47:56;99005.69;;;16.81;100.00
27984;BME280;15317;50.360;8.726;2022-09-13T08:52:09;99006.50;;;17.08;100.00
27984;BME280;15317;50.360;8.726;2022-09-13T08:56:19;99011.75;;;17.36;100.00
27984;BME280;15317;50.360;8.726;2022-09-13T09:00:27;99001.47;;;17.83;100.00
27984;BME280;15317;50.360;8.726;2022-09-13T09:04:36;98997.34;;;18.05;100.00
27984;BME280;15317;50.360;8.726;2022-09-13T09:08:43;98995.16;;;18.20;100.00
27984;BME280;15317;50.360;8.726;2022-09-13T09:12:49;98994.66;;;18.30;100.00
27984;BME280;15317;50.360;8.726;2022-09-13T09:16:57;98995.16;;;18.20;100.00
27984;BME280;15317;50.360;8.726;2022-09-13T09:21:02;98991.47;;;18.33;100.00
27984;BME280;15317;50.360;8.726;2022-09-13T09:25:09;98988.19;;;18.56;100.00
27984;BME280;15317;50.360;8.726;2022-09-13T09:29:17;98984.84;;;18.40;100.00
27984;BME280;15317;50.360;8.726;2022-09-13T09:33:32;98982.53;;;18.37;100.00
27984;BME280;15317;50.360;8.726;2022-09-13T09:37:40;98966.56;;;18.52;100.00
27984;BME280;15317;50.360;8.726;2022-09-13T09:41:45;98952.97;;;18.64;100.00
27984;BME280;15317;50.360;8.726;2022-09-13T09:45:48;98945.16;;;18.86;100.00
27984;BME280;15317;50.360;8.726;2022-09-13T09:49:54;98945.28;;;19.16;98.86
27984;BME280;15317;50.360;8.726;2022-09-13T09:54:11;98970.81;;;19.41;94.96
27984;BME280;15317;50.360;8.726;2022-09-13T09:58:15;98983.56;;;19.79;91.82
27984;BME280;15317;50.360;8.726;2022-09-13T10:02:19;98990.19;;;19.89;86.42
27984;BME280;15317;50.360;8.726;2022-09-13T10:06:24;98984.53;;;19.84;86.11
27984;BME280;15317;50.360;8.726;2022-09-13T10:10:34;98976.28;;;19.84;85.21
27984;BME280;15317;50.360;8.726;2022-09-13T10:14:41;98988.31;;;20.01;84.82
27984;BME280;15317;50.360;8.726;2022-09-13T10:18:44;98980.66;;;20.03;84.91
27984;BME280;15317;50.360;8.726;2022-09-13T10:27:35;98994.88;;;20.19;82.69
27984;BME280;15317;50.360;8.726;2022-09-13T10:31:42;98999.47;;;20.25;83.42
27984;BME280;15317;50.360;8.726;2022-09-13T10:35:46;98992.72;;;20.39;82.48
27984;BME280;15317;50.360;8.726;2022-09-13T10:39:55;98994.97;;;20.42;82.48
27984;BME280;15317;50.360;8.726;2022-09-13T10:44:01;99004.00;;;20.49;83.11
27984;BME280;15317;50.360;8.726;2022-09-13T10:48:10;99006.34;;;20.75;84.50
27984;BME280;15317;50.360;8.726;2022-09-13T10:52:29;98987.41;;;20.67;83.16
27984;BME280;15317;50.360;8.726;2022-09-13T10:56:31;98996.13;;;20.64;82.60
27984;BME280;15317;50.360;8.726;2022-09-13T11:00:38;99001.53;;;20.59;84.07
27984;BME280;15317;50.360;8.726;2022-09-13T11:05:17;98991.56;;;20.58;84.02
27984;BME280;15317;50.360;8.726;2022-09-13T11:09:27;98998.88;;;20.64;83.64
27984;BME280;15317;50.360;8.726;2022-09-13T11:13:41;98990.16;;;20.67;84.08
27984;BME280;15317;50.360;8.726;2022-09-13T11:18:09;98985.22;;;20.69;83.02
27984;BME280;15317;50.360;8.726;2022-09-13T11:22:40;98989.31;;;20.78;82.64
27984;BME280;15317;50.360;8.726;2022-09-13T11:26:53;98991.25;;;20.89;82.90
27984;BME280;15317;50.360;8.726;2022-09-13T11:31:12;98983.09;;;20.95;81.07
27984;BME280;15317;50.360;8.726;2022-09-13T11:35:35;98966.56;;;21.18;81.31
27984;BME280;15317;50.360;8.726;2022-09-13T11:39:50;98970.03;;;21.25;79.15
27984;BME280;15317;50.360;8.726;2022-09-13T11:44:21;98964.88;;;21.40;78.77
27984;BME280;15317;50.360;8.726;2022-09-13T11:48:49;98967.38;;;21.30;76.95
27984;BME280;15317;50.360;8.726;2022-09-13T11:53:06;98950.56;;;21.32;78.42
27984;BME280;15317;50.360;8.726;2022-09-13T11:57:13;98941.97;;;21.56;79.51
27984;BME280;15317;50.360;8.726;2022-09-13T12:01:20;98941.59;;;21.76;78.57
27984;BME280;15317;50.360;8.726;2022-09-13T12:05:27;98939.44;;;22.06;75.68
27984;BME280;15317;50.360;8.726;2022-09-13T12:09:34;98942.28;;;22.40;75.67
27984;BME280;15317;50.360;8.726;2022-09-13T12:13:43;98938.00;;;22.32;73.21
27984;BME280;15317;50.360;8.726;2022-09-13T12:17:49;98939.09;;;22.48;74.09
27984;BME280;15317;50.360;8.726;2022-09-13T12:21:54;98932.41;;;22.44;73.79
27984;BME280;15317;50.360;8.726;2022-09-13T12:26:01;98928.88;;;22.49;73.84
27984;BME280;15317;50.360;8.726;2022-09-13T12:30:09;98929.63;;;22.61;71.74
27984;BME280;15317;50.360;8.726;2022-09-13T12:34:20;98911.81;;;22.85;72.28
27984;BME280;15317;50.360;8.726;2022-09-13T12:38:37;98911.16;;;23.16;71.40
27984;BME280;15317;50.360;8.726;2022-09-13T12:43:15;98912.59;;;23.02;69.88
27984;BME280;15317;50.360;8.726;2022-09-13T12:47:40;98902.38;;;22.86;71.00
27984;BME280;15317;50.360;8.726;2022-09-13T12:52:05;98905.63;;;23.00;71.75
27984;BME280;15317;50.360;8.726;2022-09-13T12:56:25;98896.72;;;23.14;71.18
27984;BME280;15317;50.360;8.726;2022-09-13T13:00:33;98900.28;;;23.32;70.00
27984;BME280;15317;50.360;8.726;2022-09-13T13:04:41;98896.75;;;23.36;69.32
27984;BME280;15317;50.360;8.726;2022-09-13T13:08:49;98890.75;;;23.44;68.63
27984;BME280;15317;50.360;8.726;2022-09-13T13:12:51;98883.97;;;23.52;70.50
27984;BME280;15317;50.360;8.726;2022-09-13T13:16:53;98881.50;;;23.34;67.71
27984;BME280;15317;50.360;8.726;2022-09-13T13:25:31;98873.72;;;23.14;68.51
27984;BME280;15317;50.360;8.726;2022-09-13T13:29:33;98861.03;;;23.18;68.75
27984;BME280;15317;50.360;8.726;2022-09-13T13:33:45;98861.63;;;23.42;67.73
27984;BME280;15317;50.360;8.726;2022-09-13T13:37:49;98864.91;;;23.39;67.65
27984;BME280;15317;50.360;8.726;2022-09-13T13:41:52;98861.38;;;23.65;67.11
27984;BME280;15317;50.360;8.726;2022-09-13T13:45:57;98859.41;;;23.87;68.32
27984;BME280;15317;50.360;8.726;2022-09-13T13:50:13;98854.00;;;24.02;65.68
27984;BME280;15317;50.360;8.726;2022-09-13T13:54:30;98841.66;;;23.88;65.38
27984;BME280;15317;50.360;8.726;2022-09-13T13:58:54;98837.75;;;23.84;65.70
27984;BME280;15317;50.360;8.726;2022-09-13T14:03:08;98842.66;;;23.77;64.12
27984;BME280;15317;50.360;8.726;2022-09-13T14:07:39;98821.72;;;23.65;64.98
27984;BME280;15317;50.360;8.726;2022-09-13T14:12:00;98827.91;;;23.72;64.52
27984;BME280;15317;50.360;8.726;2022-09-13T14:16:15;98826.94;;;23.61;64.23
27984;BME280;15317;50.360;8.726;2022-09-13T14:20:24;98821.94;;;23.58;65.05
27984;BME280;15317;50.360;8.726;2022-09-13T14:24:26;98820.97;;;23.47;65.41
27984;BME280;15317;50.360;8.726;2022-09-13T14:28:30;98823.09;;;23.18;66.36
27984;BME280;15317;50.360;8.726;2022-09-13T14:32:38;98810.53;;;23.11;67.68
27984;BME280;15317;50.360;8.726;2022-09-13T14:36:50;98809.16;;;22.92;69.05
27984;BME280;15317;50.360;8.726;2022-09-13T14:40:57;98806.94;;;22.72;69.53
27984;BME280;15317;50.360;8.726;2022-09-13T14:45:01;98806.69;;;22.73;70.89
27984;BME280;15317;50.360;8.726;2022-09-13T14:49:06;98813.97;;;22.63;71.69
27984;BME280;15317;50.360;8.726;2022-09-13T14:53:14;98813.38;;;22.61;71.71
27984;BME280;15317;50.360;8.726;2022-09-13T14:57:21;98809.41;;;22.52;69.52
27984;BME280;15317;50.360;8.726;2022-09-13T15:01:29;98812.78;;;22.59;70.14
27984;BME280;15317;50.360;8.726;2022-09-13T15:05:32;98795.50;;;22.68;69.75
27984;BME280;15317;50.360;8.726;2022-09-13T15:09:36;98788.13;;;22.74;70.20
27984;BME280;15317;50.360;8.726;2022-09-13T15:13:38;98784.28;;;22.75;69.52
27984;BME280;15317;50.360;8.726;2022-09-13T15:17:57;98771.53;;;22.74;69.31
27984;BME280;15317;50.360;8.726;2022-09-13T15:22:05;98779.75;;;22.69;70.32
27984;BME280;15317;50.360;8.726;2022-09-13T15:26:18;98778.59;;;22.65;71.38
27984;BME280;15317;50.360;8.726;2022-09-13T15:30:23;98776.19;;;22.52;71.56
27984;BME280;15317;50.360;8.726;2022-09-13T15:34:27;98775.28;;;22.29;71.86
27984;BME280;15317;50.360;8.726;2022-09-13T15:38:30;98773.44;;;22.18;73.57
27984;BME280;15317;50.360;8.726;2022-09-13T15:42:32;98772.25;;;22.14;74.77
27984;BME280;15317;50.360;8.726;2022-09-13T15:46:43;98770.75;;;22.06;74.73
27984;BME280;15317;50.360;8.726;2022-09-13T15:51:03;98781.38;;;21.98;76.32
27984;BME280;15317;50.360;8.726;2022-09-13T15:55:10;98780.44;;;21.92;76.82
27984;BME280;15317;50.360;8.726;2022-09-13T15:59:13;98774.16;;;21.80;77.67
27984;BME280;15317;50.360;8.726;2022-09-13T16:03:16;98777.66;;;21.76;77.57
27984;BME280;15317;50.360;8.726;2022-09-13T16:07:20;98773.72;;;21.72;78.60
27984;BME280;15317;50.360;8.726;2022-09-13T16:11:23;98770.66;;;21.56;81.03
27984;BME280;15317;50.360;8.726;2022-09-13T16:15:25;98771.66;;;21.50;81.39
27984;BME280;15317;50.360;8.726;2022-09-13T16:19:28;98770.97;;;21.43;82.64
27984;BME280;15317;50.360;8.726;2022-09-13T16:23:31;98766.44;;;21.37;82.84
27984;BME280;15317;50.360;8.726;2022-09-13T16:27:33;98769.50;;;21.24;84.32
27984;BME280;15317;50.360;8.726;2022-09-13T16:31:35;98764.34;;;21.16;85.61
27984;BME280;15317;50.360;8.726;2022-09-13T16:35:37;98760.78;;;21.04;87.33
27984;BME280;15317;50.360;8.726;2022-09-13T16:39:41;98763.06;;;20.95;88.00
27984;BME280;15317;50.360;8.726;2022-09-13T16:43:43;98774.25;;;20.88;89.48
27984;BME280;15317;50.360;8.726;2022-09-13T16:47:45;98769.22;;;20.85;89.61
27984;BME280;15317;50.360;8.726;2022-09-13T16:51:47;98776.19;;;20.76;91.85
27984;BME280;15317;50.360;8.726;2022-09-13T16:55:50;98777.16;;;20.70;93.16
27984;BME280;15317;50.360;8.726;2022-09-13T16:59:53;98769.25;;;20.62;94.23
27984;BME280;15317;50.360;8.726;2022-09-13T17:03:58;98774.06;;;20.55;95.96
27984;BME280;15317;50.360;8.726;2022-09-13T17:08:00;98771.31;;;20.43;96.75
27984;BME280;15317;50.360;8.726;2022-09-13T17:12:04;98766.66;;;20.44;98.16
27984;BME280;15317;50.360;8.726;2022-09-13T17:16:19;98783.53;;;20.24;100.00
27984;BME280;15317;50.360;8.726;2022-09-13T17:20:21;98785.34;;;20.19;100.00
27984;BME280;15317;50.360;8.726;2022-09-13T17:24:23;98792.50;;;20.08;100.00
27984;BME280;15317;50.360;8.726;2022-09-13T17:28:28;98794.53;;;20.01;100.00
27984;BME280;15317;50.360;8.726;2022-09-13T17:32:30;98797.63;;;19.93;100.00
27984;BME280;15317;50.360;8.726;2022-09-13T17:36:32;98806.47;;;19.83;100.00
27984;BME280;15317;50.360;8.726;2022-09-13T17:40:34;98804.69;;;19.77;100.00
27984;BME280;15317;50.360;8.726;2022-09-13T17:44:38;98796.50;;;19.70;100.00
27984;BME280;15317;50.360;8.726;2022-09-13T17:48:40;98802.91;;;19.53;100.00
27984;BME280;15317;50.360;8.726;2022-09-13T17:52:42;98802.91;;;19.53;100.00
27984;BME280;15317;50.360;8.726;2022-09-13T17:56:44;98806.59;;;19.47;100.00
27984;BME280;15317;50.360;8.726;2022-09-13T18:00:48;98805.69;;;19.34;100.00
27984;BME280;15317;50.360;8.726;2022-09-13T18:04:50;98803.94;;;19.22;100.00
27984;BME280;15317;50.360;8.726;2022-09-13T18:08:52;98821.63;;;19.14;100.00
27984;BME280;15317;50.360;8.726;2022-09-13T18:12:54;98811.53;;;19.08;100.00
27984;BME280;15317;50.360;8.726;2022-09-13T18:16:58;98810.31;;;19.04;100.00
27984;BME280;15317;50.360;8.726;2022-09-13T18:21:00;98812.91;;;18.99;100.00
27984;BME280;15317;50.360;8.726;2022-09-13T18:25:03;98807.88;;;18.96;100.00
27984;BME280;15317;50.360;8.726;2022-09-13T18:29:08;98811.72;;;18.95;100.00
27984;BME280;15317;50.360;8.726;2022-09-13T18:33:12;98808.34;;;18.93;100.00
27984;BME280;15317;50.360;8.726;2022-09-13T18:37:14;98806.66;;;18.92;100.00
27984;BME280;15317;50.360;8.726;2022-09-13T18:41:17;98807.13;;;18.89;100.00
27984;BME280;15317;50.360;8.726;2022-09-13T18:45:19;98802.91;;;18.86;100.00
27984;BME280;15317;50.360;8.726;2022-09-13T18:49:23;98799.19;;;18.81;100.00
27984;BME280;15317;50.360;8.726;2022-09-13T18:53:25;98790.78;;;18.76;100.00
27984;BME280;15317;50.360;8.726;2022-09-13T18:57:27;98797.41;;;18.68;100.00
27984;BME280;15317;50.360;8.726;2022-09-13T19:01:31;98789.06;;;18.57;100.00
27984;BME280;15317;50.360;8.726;2022-09-13T19:05:35;98783.84;;;18.48;100.00
27984;BME280;15317;50.360;8.726;2022-09-13T19:09:39;98786.41;;;18.43;100.00
27984;BME280;15317;50.360;8.726;2022-09-13T19:13:41;98788.81;;;18.40;100.00
27984;BME280;15317;50.360;8.726;2022-09-13T19:17:43;98792.41;;;18.40;100.00
27984;BME280;15317;50.360;8.726;2022-09-13T19:21:47;98792.84;;;18.37;100.00
27984;BME280;15317;50.360;8.726;2022-09-13T19:25:49;98789.50;;;18.35;100.00
27984;BME280;15317;50.360;8.726;2022-09-13T19:29:51;98785.06;;;18.34;100.00
27984;BME280;15317;50.360;8.726;2022-09-13T19:33:54;98794.81;;;18.30;100.00
27984;BME280;15317;50.360;8.726;2022-09-13T19:37:57;98789.78;;;18.27;100.00
27984;BME280;15317;50.360;8.726;2022-09-13T19:42:00;98794.66;;;18.25;100.00
27984;BME280;15317;50.360;8.726;2022-09-13T19:46:03;98779.63;;;18.28;100.00
27984;BME280;15317;50.360;8.726;2022-09-13T19:50:07;98790.84;;;18.26;100.00
27984;BME280;15317;50.360;8.726;2022-09-13T19:54:13;98789.59;;;18.22;100.00
27984;BME280;15317;50.360;8.726;2022-09-13T19:58:16;98781.19;;;18.17;100.00
27984;BME280;15317;50.360;8.726;2022-09-13T20:02:18;98779.97;;;18.13;100.00
27984;BME280;15317;50.360;8.726;2022-09-13T20:06:21;98782.31;;;18.09;100.00
27984;BME280;15317;50.360;8.726;2022-09-13T20:10:25;98788.06;;;18.08;100.00
27984;BME280;15317;50.360;8.726;2022-09-13T20:14:27;98786.81;;;18.04;100.00
27984;BME280;15317;50.360;8.726;2022-09-13T20:18:29;98791.69;;;18.02;100.00
27984;BME280;15317;50.360;8.726;2022-09-13T20:22:31;98788.56;;;17.98;100.00
27984;BME280;15317;50.360;8.726;2022-09-13T20:26:35;98793.22;;;17.98;100.00
27984;BME280;15317;50.360;8.726;2022-09-13T20:30:37;98787.03;;;18.02;100.00
27984;BME280;15317;50.360;8.726;2022-09-13T20:34:41;98776.72;;;17.98;100.00
27984;BME280;15317;50.360;8.726;2022-09-13T20:38:46;98785.66;;;17.93;100.00
27984;BME280;15317;50.360;8.726;2022-09-13T20:42:50;98790.28;;;17.93;100.00
27984;BME280;15317;50.360;8.726;2022-09-13T20:46:52;98787.81;;;17.85;100.00
27984;BME280;15317;50.360;8.726;2022-09-13T20:50:55;98788.25;;;17.82;100.00
27984;BME280;15317;50.360;8.726;2022-09-13T20:54:57;98788.72;;;17.79;100.00
27984;BME280;15317;50.360;8.726;2022-09-13T20:59:01;98783.22;;;17.79;100.00
27984;BME280;15317;50.360;8.726;2022-09-13T21:03:03;98775.16;;;17.84;100.00
27984;BME280;15317;50.360;8.726;2022-09-13T21:07:05;98767.19;;;17.75;100.00
27984;BME280;15317;50.360;8.726;2022-09-13T21:11:27;98773.72;;;17.74;100.00
27984;BME280;15317;50.360;8.726;2022-09-13T21:15:31;98767.66;;;17.72;100.00
27984;BME280;15317;50.360;8.726;2022-09-13T21:19:33;98755.81;;;17.72;100.00
27984;BME280;15317;50.360;8.726;2022-09-13T21:23:36;98758.72;;;17.77;100.00
27984;BME280;15317;50.360;8.726;2022-09-13T21:27:43;98753.22;;;17.77;100.00
27984;BME280;15317;50.360;8.726;2022-09-13T21:31:46;98743.31;;;17.76;100.00
27984;BME280;15317;50.360;8.726;2022-09-13T21:35:48;98719.88;;;17.73;100.00
27984;BME280;15317;50.360;8.726;2022-09-13T21:39:51;98724.13;;;17.69;100.00
27984;BME280;15317;50.360;8.726;2022-09-13T21:43:53;98718.63;;;17.69;100.00